Time;durP1;ratioP1;P1;durP2;ratioP2;P2;SDS_P1;SDS_P2;PMS_P1;PMS_P2;Temp;Humidity;BMP_temperature;BMP_pressure;BME280_temperature;BME280_humidity;BME280_pressure;Samples;Min_cycle;Max_cycle;Signal;HPM_P1;HPM_P2
2022/08/11 00:00:35;;;;;;;4.50;4.10;;;;;;;20.43;65.05;95049.91;5096650;28;20179;-71
2022/08/11 00:03:07;;;;;;;4.60;4.20;;;;;;;20.36;65.43;95049.19;5097475;28;20185;-71
2022/08/11 00:05:43;;;;;;;5.10;4.70;;;;;;;20.28;65.69;95044.91;5096115;28;20289;-71
2022/08/11 00:08:10;;;;;;;4.93;4.53;;;;;;;20.23;65.57;95046.16;5097324;28;20180;-71
2022/08/11 00:10:39;;;;;;;5.00;4.60;;;;;;;20.22;65.96;95052.16;5096442;28;20204;-71
2022/08/11 00:13:08;;;;;;;5.25;4.85;;;;;;;20.22;66.13;95049.34;5096093;28;20215;-71
2022/08/11 00:15:40;;;;;;;4.85;4.55;;;;;;;20.22;66.05;95047.34;5095901;28;20204;-71
2022/08/11 00:18:09;;;;;;;5.78;5.28;;;;;;;20.24;65.83;95052.53;5096322;28;20224;-71
2022/08/11 00:20:41;;;;;;;4.93;4.53;;;;;;;20.25;65.49;95049.31;5097070;28;20184;-71
2022/08/11 00:23:09;;;;;;;5.18;4.78;;;;;;;20.27;65.56;95051.72;5097219;28;20177;-71
2022/08/11 00:25:46;;;;;;;4.80;4.40;;;;;;;20.26;65.64;95044.50;5096153;28;20603;-71
2022/08/11 00:28:30;;;;;;;5.07;4.68;;;;;;;20.27;65.32;95049.72;5096998;28;20184;-71
2022/08/11 00:31:00;;;;;;;5.28;4.88;;;;;;;20.28;65.03;95040.09;5096885;28;20181;-71
2022/08/11 00:33:35;;;;;;;5.25;4.82;;;;;;;20.32;64.91;95042.84;5096524;28;20521;-71
2022/08/11 00:36:04;;;;;;;5.25;4.85;;;;;;;20.34;64.56;95037.63;5096487;28;20195;-71
2022/08/11 00:38:35;;;;;;;4.68;4.28;;;;;;;20.37;65.13;95034.78;5095562;28;20240;-71
2022/08/11 00:41:11;;;;;;;4.88;4.47;;;;;;;20.41;65.17;95038.34;5095478;28;20188;-71
2022/08/11 00:44:21;;;;;;;4.72;4.40;;;;;;;20.45;64.37;95038.31;5095587;28;20596;-71
2022/08/11 00:47:00;;;;;;;4.68;4.38;;;;;;;20.44;64.94;95033.91;5096044;28;20211;-71
2022/08/11 00:49:40;;;;;;;5.00;4.60;;;;;;;20.44;65.02;95034.72;5095743;28;20176;-71
2022/08/11 00:52:17;;;;;;;4.80;4.40;;;;;;;20.37;65.17;95037.59;5096412;28;20207;-71
2022/08/11 00:55:05;;;;;;;6.15;4.85;;;;;;;20.30;65.63;95034.06;5095515;28;20273;-71
2022/08/11 00:58:11;;;;;;;5.10;4.60;;;;;;;20.22;66.21;95033.34;5095718;28;20215;-71
2022/08/11 01:01:02;;;;;;;4.80;4.47;;;;;;;20.17;66.44;95028.22;5096555;28;20214;-72
2022/08/11 01:03:52;;;;;;;6.10;4.60;;;;;;;20.12;66.52;95032.25;5095062;28;20197;-72
2022/08/11 01:06:52;;;;;;;5.32;4.50;;;;;;;20.06;66.79;95030.31;5096146;28;20192;-72
2022/08/11 01:09:37;;;;;;;5.03;4.63;;;;;;;20.00;67.18;95031.97;5078913;28;20213;-72
2022/08/11 01:12:25;;;;;;;5.07;4.57;;;;;;;20.00;67.30;95031.97;5095491;28;20199;-72
2022/08/11 01:15:39;;;;;;;4.75;4.35;;;;;;;19.95;67.17;95027.63;5095048;28;20204;-72
2022/08/11 01:18:40;;;;;;;5.50;4.78;;;;;;;19.93;67.22;95028.06;5017394;28;20209;-72
2022/08/11 01:22:00;;;;;;;5.15;4.85;;;;;;;19.89;67.74;95021.66;5033699;28;20205;-72
2022/08/11 01:25:14;;;;;;;5.00;4.70;;;;;;;19.87;67.70;95028.91;5033773;28;20301;-72
2022/08/11 01:28:36;;;;;;;5.07;4.68;;;;;;;19.81;67.92;95033.34;5033996;28;20608;-72
2022/08/11 01:31:38;;;;;;;5.32;4.93;;;;;;;19.78;67.43;95025.78;5033893;28;20209;-72
2022/08/11 01:34:47;;;;;;;5.32;4.93;;;;;;;19.70;68.01;95020.25;5017105;28;20634;-72
2022/08/11 01:38:02;;;;;;;5.05;4.65;;;;;;;19.68;68.10;95019.06;5033656;28;20761;-72
2022/08/11 01:40:59;;;;;;;5.15;4.75;;;;;;;19.67;68.19;95014.69;4974796;28;20236;-71
2022/08/11 01:46:52;;;;;;;5.45;5.00;;;;;;;19.65;68.54;95017.91;4974831;28;20204;-72
2022/08/11 01:49:26;;;;;;;5.20;4.80;;;;;;;19.64;68.61;95013.50;4974802;28;20660;-72
2022/08/11 01:52:11;;;;;;;5.20;4.80;;;;;;;19.57;68.30;95010.75;4974726;28;20291;-72
2022/08/11 01:54:42;;;;;;;5.18;4.75;;;;;;;19.51;68.46;95015.19;5026642;28;20209;-72
2022/08/11 01:57:28;;;;;;;6.13;5.20;;;;;;;19.47;68.72;95017.22;5053349;28;20189;-72
2022/08/11 02:00:02;;;;;;;6.20;4.72;;;;;;;19.44;68.68;95018.06;5036494;28;20221;-72
2022/08/11 02:02:48;;;;;;;5.60;5.05;;;;;;;19.44;68.88;95021.63;5053413;28;20209;-72
2022/08/11 02:05:45;;;;;;;5.20;4.78;;;;;;;19.45;68.62;95012.03;5036736;28;20247;-72
2022/08/11 02:08:21;;;;;;;5.15;4.75;;;;;;;19.43;68.59;95010.88;5028614;28;20220;-72
2022/08/11 02:13:47;;;;;;;5.20;4.80;;;;;;;19.43;69.09;95013.66;5040857;28;20197;-72
2022/08/11 02:16:25;;;;;;;5.38;4.93;;;;;;;19.42;68.91;95010.06;5094486;28;20207;-72
2022/08/11 02:24:37;;;;;;;5.57;5.00;;;;;;;19.29;68.35;95019.38;5097406;28;20192;-72
2022/08/11 02:27:08;;;;;;;5.45;4.90;;;;;;;19.27;69.02;95021.78;5097774;28;20231;-72
2022/08/11 02:29:46;;;;;;;7.00;5.47;;;;;;;19.27;68.86;95022.56;5098935;28;20245;-72
2022/08/11 02:35:16;;;;;;;5.40;4.90;;;;;;;19.27;69.17;95021.78;5098232;28;20223;-71
2022/08/11 02:37:51;;;;;;;6.18;4.97;;;;;;;19.23;68.76;95019.78;5098523;28;20240;-71
2022/08/11 02:40:27;;;;;;;5.40;4.90;;;;;;;19.19;69.00;95015.44;5098257;28;20227;-71
2022/08/11 02:43:10;;;;;;;5.30;4.90;;;;;;;19.17;69.03;95017.84;5098202;28;20293;-71
2022/08/11 02:45:48;;;;;;;5.57;5.07;;;;;;;19.13;69.19;95012.25;5097710;28;20628;-71
2022/08/11 02:51:26;;;;;;;5.53;5.13;;;;;;;19.14;69.18;95011.09;5098585;28;20510;-71
2022/08/11 02:54:08;;;;;;;7.20;5.55;;;;;;;19.12;69.75;95016.28;5097463;28;20196;-71
2022/08/11 02:56:45;;;;;;;5.82;5.22;;;;;;;19.13;69.22;95019.84;5098784;28;20363;-71
2022/08/11 03:02:31;;;;;;;5.80;5.30;;;;;;;19.03;69.22;95009.53;5097421;28;20616;-72
2022/08/11 03:05:16;;;;;;;6.10;5.50;;;;;;;19.00;69.36;95011.97;5098341;28;20645;-72
2022/08/11 03:08:15;;;;;;;5.82;5.40;;;;;;;18.97;69.21;95014.78;5097536;28;20184;-71
2022/08/11 03:16:43;;;;;;;6.05;5.53;;;;;;;18.96;69.06;95018.78;5093810;28;20205;-72
2022/08/11 03:16:47;;;;;;;5.60;5.15;;;;;;;18.92;69.40;95021.59;5098320;28;20517;-72
2022/08/11 03:19:24;;;;;;;6.78;5.38;;;;;;;18.89;69.36;95027.22;5097998;28;20208;-72
2022/08/11 03:22:01;;;;;;;6.30;5.80;;;;;;;18.88;69.64;95020.00;5097288;28;20196;-72
2022/08/11 03:24:37;;;;;;;6.10;5.50;;;;;;;18.88;69.63;95020.84;5098406;28;20195;-72
2022/08/11 03:27:09;;;;;;;5.90;5.32;;;;;;;18.87;69.48;95019.22;5097528;28;20499;-72
2022/08/11 03:29:42;;;;;;;5.65;5.15;;;;;;;18.85;69.58;95018.84;5098029;28;20188;-72
2022/08/11 03:32:13;;;;;;;5.60;5.07;;;;;;;18.85;69.13;95020.84;5096988;28;20221;-72
2022/08/11 03:34:43;;;;;;;6.10;5.60;;;;;;;18.85;69.60;95024.44;5096091;28;20203;-72
2022/08/11 03:37:52;;;;;;;5.82;5.32;;;;;;;18.84;69.61;95017.22;5097494;28;20676;-72
2022/08/11 03:43:40;;;;;;;7.25;5.65;;;;;;;18.84;69.88;95016.44;5096709;28;20532;-72
2022/08/11 03:46:12;;;;;;;6.10;5.15;;;;;;;18.84;69.87;95016.44;5096647;28;20208;-72
2022/08/11 03:48:48;;;;;;;6.80;5.53;;;;;;;18.85;69.63;95027.22;5096981;28;20200;-73
2022/08/11 03:51:28;;;;;;;8.18;6.40;;;;;;;18.81;69.84;95011.66;5096820;28;20538;-72
2022/08/11 03:54:04;;;;;;;8.50;6.00;;;;;;;18.79;69.60;95019.69;5096406;28;20212;-73
2022/08/11 03:57:02;;;;;;;6.28;5.47;;;;;;;18.78;69.89;95027.25;5097757;28;20203;-72
2022/08/11 04:00:21;;;;;;;6.43;5.65;;;;;;;18.72;70.23;95028.88;5097147;28;20662;-72
2022/08/11 04:03:25;;;;;;;8.73;5.82;;;;;;;18.74;70.00;95021.69;5097292;28;20180;-70
2022/08/11 04:06:41;;;;;;;7.82;5.72;;;;;;;18.75;70.09;95028.06;5096468;28;20207;-70
2022/08/11 04:09:55;;;;;;;7.90;5.57;;;;;;;18.79;70.44;95025.25;5096508;28;20203;-70
2022/08/11 04:12:48;;;;;;;9.35;6.35;;;;;;;18.78;70.29;95027.25;5096255;28;20184;-70
2022/08/11 04:15:59;;;;;;;10.48;6.57;;;;;;;18.82;69.93;95027.25;5096070;28;20192;-70
2022/08/11 04:18:51;;;;;;;7.28;5.90;;;;;;;18.85;70.19;95027.22;5096340;28;20243;-70
2022/08/11 04:22:06;;;;;;;6.75;5.55;;;;;;;18.80;69.75;95024.84;5076532;28;20200;-70
2022/08/11 04:25:06;;;;;;;7.82;6.28;;;;;;;18.80;69.90;95038.81;5097032;28;20249;-70
2022/08/11 04:27:59;;;;;;;6.35;5.75;;;;;;;18.83;70.08;95031.63;4994346;28;20202;-70
2022/08/11 04:30:31;;;;;;;6.72;6.13;;;;;;;18.81;70.32;95036.81;5096807;28;20204;-70
2022/08/11 04:33:58;;;;;;;8.27;5.95;;;;;;;18.87;70.54;95035.19;5096523;28;20515;-71
2022/08/11 04:39:49;;;;;;;7.03;6.32;;;;;;;18.95;70.34;95040.34;5096578;28;20211;-71
2022/08/11 04:46:07;;;;;;;7.28;6.63;;;;;;;19.08;69.98;95048.25;5095181;28;20207;-70
2022/08/11 05:07:51;;;;;;;7.15;6.50;;;;;;;19.52;67.83;95041.94;4998168;28;20195;-71
2022/08/11 05:10:29;;;;;;;6.80;6.20;;;;;;;19.47;68.53;95040.41;5014667;28;20226;-71
2022/08/11 05:27:09;;;;;;;6.57;5.97;;;;;;;19.46;68.11;95040.78;4997910;28;20210;-71
2022/08/11 05:36:03;;;;;;;6.95;6.25;;;;;;;19.59;68.61;95039.09;5027442;28;20260;-71
2022/08/11 05:58:03;;;;;;;6.60;6.10;;;;;;;19.89;68.21;95037.66;5094803;28;20180;-71
2022/08/11 06:00:32;;;;;;;7.57;6.35;;;;;;;19.92;68.44;95034.06;5095191;28;20193;-71
2022/08/11 06:03:06;;;;;;;6.85;6.20;;;;;;;19.95;68.39;95039.63;5095651;28;20374;-71
2022/08/11 06:05:37;;;;;;;6.85;6.25;;;;;;;19.98;68.25;95040.81;5094439;28;20207;-71
2022/08/11 06:08:08;;;;;;;7.32;6.72;;;;;;;20.00;68.18;95037.56;5094740;28;20200;-71
2022/08/11 06:10:37;;;;;;;6.10;5.60;;;;;;;20.00;67.88;95041.16;5095256;28;20207;-71
2022/08/11 06:13:07;;;;;;;6.65;6.07;;;;;;;20.03;67.15;95039.53;5095103;28;20185;-71
2022/08/11 06:15:43;;;;;;;7.15;6.53;;;;;;;20.03;67.39;95043.13;5095282;28;20192;-71
2022/08/11 06:18:14;;;;;;;6.32;5.82;;;;;;;20.06;67.36;95033.91;5095480;28;20192;-71
2022/08/11 06:20:49;;;;;;;6.10;5.70;;;;;;;20.10;67.58;95034.66;5095189;28;20273;-71
2022/08/11 06:23:19;;;;;;;6.05;5.55;;;;;;;20.16;67.08;95030.22;5093971;28;20214;-71
2022/08/11 06:25:47;;;;;;;6.95;6.35;;;;;;;20.20;67.08;95033.78;5094222;28;20239;-71
2022/08/11 06:28:17;;;;;;;6.65;6.10;;;;;;;20.25;67.04;95032.50;5094994;28;20172;-71
2022/08/11 06:30:47;;;;;;;6.43;5.82;;;;;;;20.27;67.54;95024.50;5094139;28;20196;-71
2022/08/11 06:33:17;;;;;;;7.50;6.10;;;;;;;20.34;67.44;95023.63;5095351;28;20189;-71
2022/08/11 06:36:00;;;;;;;6.80;6.20;;;;;;;20.37;67.46;95026.41;5094166;28;20200;-71
2022/08/11 06:38:40;;;;;;;6.35;5.85;;;;;;;20.39;66.99;95023.16;5093976;28;20235;-71
2022/08/11 06:41:32;;;;;;;6.65;6.07;;;;;;;20.42;67.13;95028.72;5093723;28;20220;-71
2022/08/11 06:44:18;;;;;;;7.18;6.68;;;;;;;20.47;67.41;95027.47;5093838;28;20601;-71
2022/08/11 06:46:49;;;;;;;6.30;5.80;;;;;;;20.50;66.55;95031.47;5094531;28;20200;-71
2022/08/11 06:52:18;;;;;;;6.97;6.47;;;;;;;20.61;66.06;95032.94;5057110;28;20209;-71
2022/08/11 06:54:53;;;;;;;6.70;6.20;;;;;;;20.68;66.13;95035.66;5094314;28;20193;-71
2022/08/11 07:03:08;;;;;;;6.18;5.57;;;;;;;20.84;64.82;95034.25;5085001;28;20205;-71
2022/08/11 07:05:45;;;;;;;6.82;6.28;;;;;;;20.89;65.03;95033.78;5093835;28;20200;-71
2022/08/11 07:28:57;;;;;;;5.47;4.97;;;;;;;21.31;62.85;95040.00;5098001;28;20181;-71
2022/08/11 07:31:40;;;;;;;6.40;5.90;;;;;;;21.38;63.59;95042.72;5097894;28;20169;-71
2022/08/11 07:34:17;;;;;;;5.38;4.97;;;;;;;21.46;62.21;95035.00;5097192;28;20274;-71
2022/08/11 07:36:50;;;;;;;5.80;5.40;;;;;;;21.51;62.65;95037.34;5097994;28;20236;-71
2022/08/11 07:39:21;;;;;;;5.68;5.18;;;;;;;21.48;61.73;95038.19;5096945;28;20211;-71
2022/08/11 07:41:49;;;;;;;7.30;5.97;;;;;;;21.46;61.71;95035.81;5096582;28;20213;-70
2022/08/11 07:44:17;;;;;;;7.05;6.30;;;;;;;21.49;61.92;95032.13;5098075;28;20185;-71
2022/08/11 07:52:32;;;;;;;4.88;4.50;;;;;;;21.69;59.76;95025.84;5096656;28;20200;-71
2022/08/11 07:55:00;;;;;;;4.82;4.45;;;;;;;21.74;59.61;95026.13;5096866;28;20203;-71
2022/08/11 08:19:43;;;;;;;5.15;4.70;;;;;;;22.11;57.81;95016.69;5095910;28;20203;-71
2022/08/11 08:22:10;;;;;;;5.70;5.30;;;;;;;22.18;58.64;95017.78;5095542;28;20207;-71
2022/08/11 08:24:38;;;;;;;4.55;4.25;;;;;;;22.26;57.41;95008.81;5096197;28;20199;-71
2022/08/11 08:27:06;;;;;;;5.68;5.25;;;;;;;22.31;57.18;95013.13;5096241;28;20204;-71
2022/08/11 08:32:20;;;;;;;5.50;5.05;;;;;;;22.31;55.50;94999.88;5073944;28;20204;-71
2022/08/11 08:34:51;;;;;;;5.13;4.72;;;;;;;22.39;55.80;95000.50;5096175;28;20188;-71
2022/08/11 08:37:20;;;;;;;5.32;4.82;;;;;;;22.42;55.67;94994.03;5095490;28;20232;-71
2022/08/11 08:39:49;;;;;;;4.95;4.60;;;;;;;22.45;56.54;94998.81;5096486;28;20599;-71
2022/08/11 08:42:20;;;;;;;5.05;4.65;;;;;;;22.46;56.89;94994.75;5096280;28;20203;-71
2022/08/11 08:44:54;;;;;;;5.07;4.70;;;;;;;22.59;57.03;94998.50;5096566;28;20203;-70
2022/08/11 08:47:25;;;;;;;4.88;4.57;;;;;;;22.76;56.74;94995.75;5096178;28;20199;-71
2022/08/11 08:50:00;;;;;;;5.50;5.10;;;;;;;22.92;55.67;94993.03;5096744;28;20184;-71
2022/08/11 08:52:37;;;;;;;5.25;4.85;;;;;;;22.99;54.78;94994.91;5095922;28;20203;-71
2022/08/11 08:55:08;;;;;;;4.60;4.30;;;;;;;22.96;54.90;94996.56;5095700;28;20230;-71
2022/08/11 08:57:37;;;;;;;5.30;4.90;;;;;;;22.93;55.27;94988.19;5095271;28;20214;-71
2022/08/11 09:00:07;;;;;;;4.75;4.35;;;;;;;23.04;55.00;94992.34;5095889;28;20631;-71
2022/08/11 09:02:34;;;;;;;5.43;4.93;;;;;;;23.18;53.98;94990.44;5095266;28;20204;-71
2022/08/11 09:05:04;;;;;;;4.70;4.40;;;;;;;23.31;53.74;94988.53;5095283;28;20193;-70
2022/08/11 09:07:32;;;;;;;5.05;4.70;;;;;;;23.40;53.26;94988.72;5095404;28;20200;-70
2022/08/11 09:10:00;;;;;;;5.13;4.72;;;;;;;23.47;53.32;94988.56;5095450;28;20200;-71
2022/08/11 09:12:31;;;;;;;5.10;4.70;;;;;;;23.56;53.27;94979.47;5095995;28;20616;-71
2022/08/11 09:15:06;;;;;;;4.97;4.57;;;;;;;23.66;52.42;94983.28;5096512;28;20253;-71
2022/08/11 09:17:40;;;;;;;5.38;4.90;;;;;;;23.73;51.85;94972.66;5096306;28;20193;-71
2022/08/11 09:20:12;;;;;;;4.65;4.25;;;;;;;23.82;51.57;94980.50;5096310;28;20196;-71
2022/08/11 09:28:18;;;;;;;4.97;4.68;;;;;;;23.95;50.99;94963.66;5096156;28;20188;-71
2022/08/11 09:30:47;;;;;;;4.43;4.13;;;;;;;24.06;50.96;94974.63;5095907;28;20188;-71
2022/08/11 09:33:16;;;;;;;4.50;4.20;;;;;;;24.24;50.07;94975.75;5094973;28;20200;-71
2022/08/11 09:35:50;;;;;;;4.88;4.50;;;;;;;24.40;50.32;94968.50;5095659;28;20269;-71
2022/08/11 09:41:04;;;;;;;5.10;4.47;;;;;;;24.61;49.50;94972.75;5094923;28;20220;-71
2022/08/11 09:46:17;;;;;;;5.10;4.70;;;;;;;24.71;50.05;94966.78;5094736;28;20200;-71
2022/08/11 09:48:47;;;;;;;9.35;5.65;;;;;;;24.76;48.96;94962.63;5095748;28;20184;-71
2022/08/11 09:51:19;;;;;;;5.80;5.40;;;;;;;24.75;49.54;94966.69;5094856;28;20200;-71
2022/08/11 09:53:49;;;;;;;5.00;4.60;;;;;;;24.79;49.07;94963.75;5094409;28;20600;-71
2022/08/11 09:59:05;;;;;;;5.10;4.70;;;;;;;24.91;48.61;94958.16;5094839;28;20192;-71
2022/08/11 10:01:40;;;;;;;5.80;5.18;;;;;;;24.96;49.04;94960.41;5095081;28;20247;-71
2022/08/11 10:04:14;;;;;;;4.97;4.57;;;;;;;25.01;47.31;94944.16;5094573;28;20249;-71
2022/08/11 10:07:01;;;;;;;5.63;5.13;;;;;;;25.12;47.17;94941.81;5094686;28;20199;-70
2022/08/11 10:09:36;;;;;;;5.13;4.65;;;;;;;25.20;47.06;94943.16;5095206;28;20215;-71
2022/08/11 10:12:06;;;;;;;5.00;4.50;;;;;;;25.22;47.19;94940.69;5095355;28;20190;-71
2022/08/11 10:17:26;;;;;;;5.35;4.95;;;;;;;25.24;47.04;94945.88;5094288;28;20200;-70
2022/08/11 10:20:01;;;;;;;5.57;5.18;;;;;;;25.26;46.69;94940.59;5094134;28;20239;-71
2022/08/11 10:28:05;;;;;;;5.20;4.80;;;;;;;25.57;46.29;94946.44;5095111;28;20177;-70
2022/08/11 10:36:06;;;;;;;4.97;4.55;;;;;;;25.70;45.25;94942.34;5095116;28;20173;-71
2022/08/11 10:38:35;;;;;;;4.82;4.43;;;;;;;25.80;45.34;94945.28;5093830;28;20220;-71
2022/08/11 10:43:51;;;;;;;4.57;4.28;;;;;;;25.92;43.07;94936.00;5095256;28;20184;-70
2022/08/11 10:49:07;;;;;;;4.47;4.07;;;;;;;26.05;42.80;94933.13;5098497;28;20222;-70
2022/08/11 10:59:55;;;;;;;6.55;4.50;;;;;;;26.19;43.07;94923.38;5098877;28;20176;-70
2022/08/11 11:02:22;;;;;;;4.80;4.50;;;;;;;26.28;43.17;94912.13;5097616;28;20205;-71
2022/08/11 11:05:02;;;;;;;5.55;5.15;;;;;;;26.31;43.10;94914.81;5098918;28;20191;-71
2022/08/11 11:07:37;;;;;;;5.03;4.60;;;;;;;26.25;43.37;94915.88;5098680;28;20230;-71
2022/08/11 11:10:09;;;;;;;5.70;5.10;;;;;;;26.05;43.41;94908.50;5098873;28;20188;-71
2022/08/11 11:18:19;;;;;;;5.03;4.60;;;;;;;26.26;43.13;94906.94;5097467;28;20647;-71
2022/08/11 11:20:51;;;;;;;5.13;4.72;;;;;;;26.35;43.37;94897.72;5097519;28;20193;-71
2022/08/11 11:23:20;;;;;;;5.15;4.70;;;;;;;26.42;42.39;94905.94;5098183;28;20215;-70
2022/08/11 11:26:18;;;;;;;4.63;4.30;;;;;;;26.46;42.43;94903.00;5097514;28;20207;-70
2022/08/11 11:29:08;;;;;;;5.30;4.90;;;;;;;26.48;41.60;94892.84;5097382;28;20196;-71
2022/08/11 11:31:49;;;;;;;5.05;4.65;;;;;;;26.53;43.43;94897.09;5098049;28;20192;-70
2022/08/11 11:34:44;;;;;;;4.97;4.57;;;;;;;26.62;42.67;94892.28;5097472;28;20257;-70
2022/08/11 11:37:14;;;;;;;5.03;4.63;;;;;;;26.71;42.25;94890.75;5080767;28;20236;-70
2022/08/11 11:39:43;;;;;;;5.30;4.88;;;;;;;26.73;41.36;94891.09;5097411;28;20658;-71
2022/08/11 11:42:12;;;;;;;4.85;4.30;;;;;;;26.69;42.17;94898.91;5098632;28;20208;-71
2022/08/11 11:44:39;;;;;;;5.72;5.22;;;;;;;26.58;41.49;94905.78;5098414;28;20200;-71
2022/08/11 11:47:06;;;;;;;5.35;4.95;;;;;;;26.59;42.07;94898.88;5098113;28;20200;-70
2022/08/11 11:49:38;;;;;;;4.90;4.50;;;;;;;26.64;41.91;94886.16;5097092;28;20197;-71
2022/08/11 11:52:08;;;;;;;5.72;5.07;;;;;;;26.73;42.10;94889.06;5097233;28;20604;-70
2022/08/11 11:54:36;;;;;;;5.57;5.07;;;;;;;26.81;41.75;94896.00;5097465;28;20459;-70
2022/08/11 12:02:35;;;;;;;4.70;4.40;;;;;;;27.14;41.58;94884.25;5097298;28;20224;-70
2022/08/11 12:05:04;;;;;;;4.68;4.25;;;;;;;27.08;40.41;94886.84;5096987;28;20196;-71
2022/08/11 12:10:19;;;;;;;4.72;4.32;;;;;;;26.99;39.91;94874.72;5097464;28;20185;-70
2022/08/11 12:15:33;;;;;;;4.70;4.30;;;;;;;27.02;40.79;94868.13;5096706;28;20295;-70
2022/08/11 12:18:02;;;;;;;4.85;4.45;;;;;;;27.09;40.75;94868.63;5096452;28;20196;-71
2022/08/11 12:20:32;;;;;;;4.88;4.47;;;;;;;27.15;40.53;94862.38;5097038;28;20197;-70
2022/08/11 12:28:33;;;;;;;5.30;4.90;;;;;;;27.08;39.35;94861.38;5096376;28;20191;-70
2022/08/11 12:31:04;;;;;;;4.65;4.35;;;;;;;27.04;40.35;94865.63;5096016;28;20195;-70
2022/08/11 12:33:32;;;;;;;5.15;4.72;;;;;;;26.94;40.39;94859.13;5096791;28;20207;-71
2022/08/11 12:36:00;;;;;;;5.30;4.80;;;;;;;26.95;40.36;94865.59;5097281;28;20177;-71
2022/08/11 12:38:27;;;;;;;4.72;4.32;;;;;;;26.98;39.87;94859.78;5096074;28;20244;-71
2022/08/11 12:46:34;;;;;;;4.90;4.50;;;;;;;26.49;41.51;94876.66;5096973;28;20176;-71
2022/08/11 12:51:58;;;;;;;4.65;4.25;;;;;;;26.00;42.60;94877.19;5097019;28;20169;-71
2022/08/11 12:54:29;;;;;;;5.90;4.50;;;;;;;25.83;43.04;94877.38;5095942;28;20196;-71
2022/08/11 13:05:22;;;;;;;4.85;4.40;;;;;;;25.44;44.85;94876.66;5095455;28;20200;-70
2022/08/11 13:07:49;;;;;;;5.15;4.65;;;;;;;25.34;44.97;94877.00;5096091;28;20192;-71
2022/08/11 13:12:46;;;;;;;4.57;4.18;;;;;;;25.28;45.15;94881.66;5095542;28;20200;-71
2022/08/11 13:13:07;;;;;;;4.43;4.03;;;;;;;25.27;44.86;94875.22;5096244;28;20280;-71
2022/08/11 13:15:36;;;;;;;4.50;3.90;;;;;;;25.28;45.11;94885.28;5095305;28;20208;-71
2022/08/11 13:18:07;;;;;;;4.50;4.20;;;;;;;25.24;44.81;94887.44;5096117;28;20211;-71
2022/08/11 13:20:35;;;;;;;5.13;4.72;;;;;;;25.30;44.97;94876.34;5095335;28;20196;-71
2022/08/11 13:23:07;;;;;;;4.13;3.83;;;;;;;25.41;44.80;94882.41;5094860;28;20224;-71
2022/08/11 13:25:34;;;;;;;5.32;4.22;;;;;;;25.52;45.02;94868.72;5095683;28;20191;-71
2022/08/11 13:28:03;;;;;;;3.40;3.20;;;;;;;25.62;44.61;94875.25;5094714;28;20604;-71
2022/08/11 13:33:32;;;;;;;4.88;4.20;;;;;;;25.74;43.99;94868.78;5017449;28;20198;-71
2022/08/11 13:35:59;;;;;;;6.38;5.88;;;;;;;25.85;43.85;94865.63;5033853;28;20225;-71
2022/08/11 13:38:26;;;;;;;5.38;4.95;;;;;;;25.87;43.61;94865.97;5033521;28;20698;-71
2022/08/11 13:40:57;;;;;;;4.18;3.80;;;;;;;25.84;43.43;94862.00;5033589;28;20658;-71
2022/08/11 13:43:25;;;;;;;4.32;3.97;;;;;;;25.90;43.59;94850.91;5000690;28;20254;-71
2022/08/11 13:46:17;;;;;;;3.90;3.60;;;;;;;25.96;43.13;94849.06;5033566;28;20615;-71
2022/08/11 13:48:48;;;;;;;4.03;3.70;;;;;;;26.05;42.84;94854.00;5033388;28;20218;-71
2022/08/11 13:51:33;;;;;;;4.50;4.10;;;;;;;26.15;43.17;94852.84;5017006;28;20233;-71
2022/08/11 13:54:04;;;;;;;3.95;3.70;;;;;;;26.22;42.78;94846.94;5033437;28;20206;-71
2022/08/11 13:56:33;;;;;;;3.70;3.40;;;;;;;26.26;42.32;94841.13;5017198;28;20229;-71
2022/08/11 13:59:01;;;;;;;3.92;3.58;;;;;;;26.25;41.96;94842.38;5033499;28;20191;-71
2022/08/11 14:01:33;;;;;;;3.85;3.58;;;;;;;26.25;42.47;94837.50;5033549;28;20214;-71
2022/08/11 14:04:09;;;;;;;3.85;3.55;;;;;;;26.29;42.52;94834.53;5033369;28;20190;-71
2022/08/11 14:06:38;;;;;;;4.75;3.72;;;;;;;26.35;41.51;94836.31;5038860;28;20190;-71
2022/08/11 14:09:09;;;;;;;3.78;3.47;;;;;;;26.40;42.30;94835.75;5095514;28;20200;-71
2022/08/11 14:14:25;;;;;;;4.07;3.78;;;;;;;26.46;40.75;94835.94;5094146;28;20290;-71
2022/08/11 14:16:56;;;;;;;3.55;3.25;;;;;;;26.49;40.55;94828.59;5095133;28;20185;-71
2022/08/11 14:19:27;;;;;;;3.88;3.58;;;;;;;26.50;41.02;94833.75;5095916;28;20197;-71
2022/08/11 14:22:07;;;;;;;4.00;3.70;;;;;;;26.48;40.12;94824.19;5098443;28;20639;-71
2022/08/11 14:24:35;;;;;;;4.00;3.70;;;;;;;26.41;40.24;94834.47;5099650;28;20196;-71
2022/08/11 14:27:05;;;;;;;3.78;3.47;;;;;;;26.42;40.98;94829.59;5098141;28;20200;-70
2022/08/11 14:29:37;;;;;;;4.20;3.80;;;;;;;26.39;40.52;94831.31;5098074;28;20596;-71
2022/08/11 14:32:10;;;;;;;4.97;3.50;;;;;;;26.44;40.96;94832.78;5081631;28;20200;-71
2022/08/11 14:34:41;;;;;;;3.80;3.50;;;;;;;26.49;40.77;94826.53;5099071;28;20287;-71
2022/08/11 14:37:11;;;;;;;4.63;4.20;;;;;;;26.54;40.63;94831.56;5098713;28;20247;-71
2022/08/11 14:39:43;;;;;;;4.05;3.75;;;;;;;26.56;40.96;94833.97;5097858;28;20698;-71
2022/08/11 14:47:50;;;;;;;4.20;3.90;;;;;;;26.53;40.59;94824.34;5068509;28;20200;-71
2022/08/11 14:50:22;;;;;;;4.88;4.43;;;;;;;26.50;41.01;94830.16;5099202;28;20208;-71
2022/08/11 14:52:53;;;;;;;5.00;4.50;;;;;;;26.50;41.18;94824.50;5098689;28;20486;-71
2022/08/11 14:58:09;;;;;;;5.22;4.82;;;;;;;26.47;42.15;94826.22;5098549;28;20173;-71
2022/08/11 15:00:38;;;;;;;4.47;4.03;;;;;;;26.51;42.27;94818.38;5098702;28;20192;-71
2022/08/11 15:03:12;;;;;;;5.20;4.70;;;;;;;26.53;42.12;94815.09;5098377;28;20212;-71
2022/08/11 15:05:48;;;;;;;4.45;4.10;;;;;;;26.36;41.88;94814.47;5098593;28;20207;-71
2022/08/11 15:08:17;;;;;;;4.57;4.20;;;;;;;26.30;42.35;94810.69;5097929;28;20598;-71
2022/08/11 15:10:45;;;;;;;5.53;5.05;;;;;;;26.29;42.18;94814.75;5098364;28;20207;-71
2022/08/11 15:13:15;;;;;;;4.70;4.40;;;;;;;26.21;41.83;94813.44;5097759;28;20199;-71
2022/08/11 15:18:27;;;;;;;4.40;4.10;;;;;;;26.20;42.44;94809.84;5098432;28;20618;-71
2022/08/11 15:37:51;;;;;;;5.63;4.43;;;;;;;25.72;43.28;94811.19;5098006;28;20232;-71
2022/08/11 15:46:01;;;;;;;4.35;3.90;;;;;;;25.59;42.96;94809.19;5097310;28;20195;-70
2022/08/11 15:48:36;;;;;;;4.57;4.00;;;;;;;25.56;42.98;94814.97;5096760;28;20200;-71
2022/08/11 15:51:08;;;;;;;4.00;3.70;;;;;;;25.54;43.02;94811.81;5096956;28;20241;-71
2022/08/11 15:53:42;;;;;;;4.57;4.10;;;;;;;25.52;42.89;94812.25;5096842;28;20192;-71
2022/08/11 15:56:11;;;;;;;4.53;3.92;;;;;;;25.49;42.68;94804.72;5097876;28;20239;-71
2022/08/11 16:04:17;;;;;;;5.40;4.05;;;;;;;25.42;42.91;94819.09;5096535;28;20204;-73
2022/08/11 16:06:54;;;;;;;4.53;4.18;;;;;;;25.41;43.16;94823.13;5096796;28;20200;-73
2022/08/11 16:09:31;;;;;;;4.53;4.10;;;;;;;25.38;42.55;94821.22;5096473;28;20199;-73
2022/08/11 16:12:03;;;;;;;4.85;4.05;;;;;;;25.31;42.76;94819.47;5097123;28;20177;-73
2022/08/11 16:17:24;;;;;;;4.38;4.07;;;;;;;25.29;43.10;94827.56;5096465;28;20196;-73
2022/08/11 16:19:54;;;;;;;4.18;3.70;;;;;;;25.27;42.85;94821.59;5096995;28;20620;-73
2022/08/11 16:22:33;;;;;;;4.05;3.70;;;;;;;25.27;42.84;94818.75;5096129;28;20658;-73
2022/08/11 16:25:04;;;;;;;4.30;3.90;;;;;;;25.23;42.23;94820.13;5096367;28;20193;-73
2022/08/11 16:27:36;;;;;;;4.50;4.20;;;;;;;25.20;42.64;94819.00;5096152;28;20197;-74
2022/08/11 16:30:06;;;;;;;4.63;4.10;;;;;;;25.19;43.08;94823.06;5097043;28;20211;-73
2022/08/11 16:32:37;;;;;;;4.72;3.83;;;;;;;25.20;42.94;94819.00;5095960;28;20520;-73
2022/08/11 16:40:42;;;;;;;4.00;3.70;;;;;;;25.13;42.77;94839.03;5096578;28;20568;-73
2022/08/11 16:48:47;;;;;;;4.45;4.13;;;;;;;25.16;43.36;94836.06;5096135;28;20192;-73
2022/08/11 16:51:15;;;;;;;4.50;4.10;;;;;;;25.16;43.04;94838.91;5096643;28;20196;-73
2022/08/11 16:53:44;;;;;;;4.20;3.90;;;;;;;25.18;42.73;94844.88;5095616;28;20193;-73
2022/08/11 16:56:16;;;;;;;3.80;3.50;;;;;;;25.16;42.36;94846.56;5095968;28;20212;-73
2022/08/11 17:01:33;;;;;;;4.40;4.00;;;;;;;25.08;42.40;94850.81;5096310;28;20611;-73
2022/08/11 17:18:07;;;;;;;4.45;4.05;;;;;;;24.98;42.60;94855.56;5095940;28;20229;-74
2022/08/11 17:20:38;;;;;;;4.90;4.20;;;;;;;24.93;42.76;94862.56;5095823;28;20611;-71
2022/08/11 17:25:54;;;;;;;4.28;3.88;;;;;;;24.81;42.97;94866.19;5094768;28;20199;-72
2022/08/11 17:28:24;;;;;;;4.68;3.90;;;;;;;24.82;43.48;94858.50;5095235;28;20286;-72